Terminal Aerodrome Forecast
Issued by NWS

Home | Current Version | Previous Version | Text Only | Print | Product List | Glossary On
Versions: 1 2 3 4 5 6 7 8 9 10 11 12 13
000
FTUS46 KHNX 262342
TAFBFL
TAF
KBFL 262342Z 2700/2724 30006KT P6SM FEW040 BKN100
     FM271500 32010KT P6SM -SHRA BKN050
     FM271800 31015G25KT P6SM BKN050=

USA.gov is the U.S. government's official web portal to all federal, state and local government web resources and services.